Time;durP1;ratioP1;P1;durP2;ratioP2;P2;SDS_P1;SDS_P2;PMS_P1;PMS_P2;Temp;Humidity;BMP_temperature;BMP_pressure;BME280_temperature;BME280_humidity;BME280_pressure;Samples;Min_cycle;Max_cycle;Signal;HPM_P1;HPM_P2
2022/05/18 00:00:58;;;;;;;41.60;11.55;;;27.00;98.90;;;;;;4129559;28;20042;-65
2022/05/18 00:03:08;;;;;;;12.85;9.63;;;27.10;98.90;;;;;;4146229;28;20489;-66
2022/05/18 00:05:13;;;;;;;13.25;9.93;;;27.20;98.80;;;;;;4128414;28;20034;-64
2022/05/18 00:07:19;;;;;;;13.18;9.15;;;27.20;98.70;;;;;;4140769;28;20037;-63
2022/05/18 00:09:24;;;;;;;12.93;9.73;;;27.20;98.30;;;;;;4140166;28;20041;-64
2022/05/18 00:11:30;;;;;;;11.38;10.05;;;27.20;98.30;;;;;;4140646;28;20046;-63
2022/05/18 00:13:42;;;;;;;11.35;10.15;;;27.20;98.30;;;;;;4139357;28;20068;-65
2022/05/18 00:15:47;;;;;;;10.15;8.98;;;27.20;98.40;;;;;;4140902;28;20061;-64
2022/05/18 00:17:53;;;;;;;11.80;8.93;;;27.20;98.10;;;;;;4145225;28;20095;-65
2022/05/18 00:19:58;;;;;;;10.50;8.90;;;27.30;98.20;;;;;;4142087;28;20057;-63
2022/05/18 00:22:03;;;;;;;9.48;8.48;;;27.30;98.30;;;;;;4139841;28;20069;-64
2022/05/18 00:24:07;;;;;;;12.60;8.20;;;27.40;98.10;;;;;;4139300;28;20080;-64
2022/05/18 00:26:12;;;;;;;9.85;8.63;;;27.50;98.00;;;;;;4136907;28;20645;-64
2022/05/18 00:28:17;;;;;;;12.05;8.20;;;27.50;97.60;;;;;;4140520;28;20058;-63
2022/05/18 00:30:22;;;;;;;13.00;8.10;;;27.50;97.80;;;;;;4142247;28;20088;-63
2022/05/18 00:32:27;;;;;;;11.13;8.68;;;27.50;97.40;;;;;;4140782;28;20053;-62
2022/05/18 00:34:32;;;;;;;12.32;8.95;;;27.60;97.30;;;;;;4140858;28;20055;-63
2022/05/18 00:36:36;;;;;;;9.57;8.57;;;27.60;97.30;;;;;;4140584;28;20507;-63
2022/05/18 00:38:41;;;;;;;9.07;7.75;;;27.60;97.50;;;;;;4136349;28;20144;-63
2022/05/18 00:40:47;;;;;;;10.55;8.70;;;27.70;97.40;;;;;;4140744;28;20427;-63
2022/05/18 00:42:51;;;;;;;10.20;8.48;;;27.70;97.30;;;;;;4140134;28;20061;-63
2022/05/18 00:44:56;;;;;;;9.82;8.32;;;27.60;97.70;;;;;;4123130;28;20136;-63
2022/05/18 00:47:00;;;;;;;9.30;8.25;;;27.70;97.70;;;;;;4136313;28;20127;-63
2022/05/18 00:49:25;;;;;;;9.15;8.23;;;27.80;97.60;;;;;;4140673;28;20053;-63
2022/05/18 00:51:42;;;;;;;9.98;7.80;;;27.80;97.20;;;;;;4138765;28;20054;-63
2022/05/18 00:53:59;;;;;;;11.05;7.78;;;27.90;96.70;;;;;;4140080;28;20531;-63
2022/05/18 00:56:07;;;;;;;9.23;7.43;;;27.90;96.60;;;;;;4162535;28;20979;-63
2022/05/18 00:58:27;;;;;;;8.15;7.30;;;27.80;96.60;;;;;;4163760;28;20041;-63
2022/05/18 01:00:32;;;;;;;8.02;7.22;;;27.90;96.50;;;;;;4139812;28;20092;-63
2022/05/18 01:02:38;;;;;;;9.20;7.72;;;27.90;96.30;;;;;;4137883;28;20552;-63
2022/05/18 01:04:43;;;;;;;9.18;7.72;;;27.90;96.60;;;;;;4137918;28;20073;-63
2022/05/18 01:06:57;;;;;;;8.35;7.55;;;28.00;96.70;;;;;;4121756;28;20057;-63
2022/05/18 01:09:04;;;;;;;9.30;7.32;;;28.10;96.60;;;;;;4152878;28;20049;-63
2022/05/18 01:11:08;;;;;;;7.82;7.03;;;28.10;96.70;;;;;;4154820;28;20053;-64
2022/05/18 01:13:13;;;;;;;13.23;8.05;;;28.20;96.60;;;;;;4153974;28;20147;-63
2022/05/18 01:15:19;;;;;;;10.52;8.10;;;28.30;96.50;;;;;;4153632;28;20077;-64
2022/05/18 01:17:28;;;;;;;10.20;8.43;;;28.40;96.50;;;;;;4138150;28;20058;-65
2022/05/18 01:19:39;;;;;;;11.25;7.65;;;28.40;96.40;;;;;;4146159;28;20805;-64
2022/05/18 01:21:48;;;;;;;11.90;7.72;;;28.50;96.50;;;;;;4154758;28;20056;-65
2022/05/18 01:23:59;;;;;;;10.63;8.05;;;28.60;96.40;;;;;;4123287;28;20660;-64
2022/05/18 01:26:17;;;;;;;12.02;8.15;;;28.60;96.20;;;;;;4154227;28;20128;-64
2022/05/18 01:28:24;;;;;;;10.00;8.95;;;28.60;96.30;;;;;;4153078;28;20045;-62
2022/05/18 01:30:29;;;;;;;10.82;8.70;;;28.50;96.40;;;;;;4137710;28;20088;-62
2022/05/18 01:32:45;;;;;;;10.80;8.20;;;28.40;96.50;;;;;;4154687;28;20052;-62
2022/05/18 01:34:50;;;;;;;8.75;7.85;;;28.60;96.60;;;;;;4140574;28;20054;-62
2022/05/18 01:36:55;;;;;;;10.52;7.53;;;28.70;96.60;;;;;;4139316;28;20053;-62
2022/05/18 01:39:00;;;;;;;9.50;8.13;;;28.70;96.40;;;;;;4138873;28;20042;-66
2022/05/18 01:41:18;;;;;;;10.00;8.27;;;28.80;96.30;;;;;;4139070;28;20046;-63
2022/05/18 01:43:30;;;;;;;9.02;7.40;;;28.90;96.20;;;;;;4138854;28;20049;-64
2022/05/18 01:45:35;;;;;;;8.80;7.38;;;28.90;96.30;;;;;;4140003;28;20150;-63
2022/05/18 01:47:40;;;;;;;8.70;7.43;;;28.90;96.40;;;;;;4140672;28;20097;-64
2022/05/18 01:49:45;;;;;;;9.93;8.18;;;29.00;96.30;;;;;;4147335;28;20053;-63
2022/05/18 01:51:51;;;;;;;9.23;7.55;;;28.90;96.20;;;;;;4151960;28;20601;-63
2022/05/18 01:53:55;;;;;;;10.38;7.90;;;28.90;96.60;;;;;;4148646;28;20046;-64
2022/05/18 01:56:00;;;;;;;11.15;8.18;;;28.80;96.60;;;;;;4139994;28;20080;-64
2022/05/18 01:58:05;;;;;;;9.90;7.88;;;28.80;96.60;;;;;;4138740;28;20453;-64
2022/05/18 02:00:11;;;;;;;9.85;7.80;;;28.90;96.60;;;;;;4138634;28;20045;-64
2022/05/18 02:02:16;;;;;;;9.15;8.13;;;29.00;96.70;;;;;;4153717;28;20621;-63
2022/05/18 02:04:22;;;;;;;9.40;8.40;;;28.90;96.50;;;;;;4121245;28;20141;-63
2022/05/18 02:06:26;;;;;;;10.68;7.97;;;29.00;96.70;;;;;;4153822;28;20064;-64
2022/05/18 02:08:31;;;;;;;11.90;8.20;;;29.00;96.40;;;;;;4156252;28;20192;-64
2022/05/18 02:10:35;;;;;;;10.88;8.15;;;29.10;96.20;;;;;;4156780;28;20049;-64
2022/05/18 02:12:40;;;;;;;11.40;7.85;;;29.20;95.90;;;;;;4157161;28;20069;-64
2022/05/18 02:14:45;;;;;;;11.25;8.30;;;29.30;96.00;;;;;;4156347;28;20085;-63
2022/05/18 02:16:50;;;;;;;12.77;8.73;;;29.20;95.80;;;;;;4156754;28;20176;-64
2022/05/18 02:18:54;;;;;;;10.98;7.55;;;29.20;96.10;;;;;;4155941;28;20084;-64
2022/05/18 02:21:05;;;;;;;9.10;8.05;;;29.40;96.40;;;;;;4155157;28;20049;-63
2022/05/18 02:23:12;;;;;;;11.95;7.88;;;29.40;96.10;;;;;;4150598;28;20049;-62
2022/05/18 02:25:17;;;;;;;8.80;7.93;;;29.50;96.00;;;;;;4165165;28;20049;-63
2022/05/18 02:27:22;;;;;;;9.10;7.85;;;29.60;95.90;;;;;;4153836;28;20041;-63
2022/05/18 02:29:30;;;;;;;11.00;7.35;;;29.60;96.00;;;;;;4154395;28;20148;-63
2022/05/18 02:31:35;;;;;;;9.60;7.82;;;29.70;95.90;;;;;;4154360;28;20064;-63
2022/05/18 02:33:40;;;;;;;8.93;7.25;;;29.80;95.90;;;;;;4146837;28;20071;-65
2022/05/18 02:36:02;;;;;;;10.30;7.40;;;29.80;95.80;;;;;;4141837;28;20166;-64
2022/05/18 02:38:09;;;;;;;10.40;7.60;;;29.80;95.80;;;;;;4124306;28;20046;-63
2022/05/18 02:40:17;;;;;;;8.55;6.80;;;29.80;95.50;;;;;;4142775;28;20069;-63
2022/05/18 02:42:22;;;;;;;9.90;7.18;;;29.70;95.10;;;;;;4141275;28;20133;-63
2022/05/18 02:44:31;;;;;;;9.27;7.15;;;29.50;95.80;;;;;;4142247;28;20046;-64
2022/05/18 02:46:35;;;;;;;7.75;6.95;;;29.50;95.80;;;;;;4140144;28;20080;-63
2022/05/18 02:48:43;;;;;;;9.73;7.00;;;29.70;96.00;;;;;;4141936;28;20810;-64
2022/05/18 02:51:01;;;;;;;7.70;6.90;;;29.80;95.90;;;;;;4126923;28;20050;-63
2022/05/18 02:53:06;;;;;;;10.60;7.15;;;29.80;95.70;;;;;;4141732;28;20490;-64
2022/05/18 02:57:28;;;;;;;10.15;7.60;;;29.70;95.50;;;;;;4139910;28;20128;-64
2022/05/18 02:59:33;;;;;;;7.97;6.47;;;29.90;95.60;;;;;;4141887;28;20820;-64
2022/05/18 03:01:39;;;;;;;12.10;7.28;;;30.10;95.60;;;;;;4140384;28;20077;-64
2022/05/18 03:04:03;;;;;;;9.27;7.43;;;30.20;95.60;;;;;;4132296;28;20503;-63
2022/05/18 03:06:14;;;;;;;8.85;7.43;;;30.30;95.40;;;;;;4142571;28;20777;-64
2022/05/18 03:08:32;;;;;;;7.93;7.15;;;30.30;95.40;;;;;;4140616;28;20045;-63
2022/05/18 03:10:37;;;;;;;10.02;7.30;;;30.40;95.50;;;;;;4130677;28;20046;-64
2022/05/18 03:12:44;;;;;;;8.65;7.60;;;30.40;95.30;;;;;;4154289;28;20273;-64
2022/05/18 03:14:50;;;;;;;8.07;7.28;;;30.40;95.20;;;;;;4141409;28;20049;-64
2022/05/18 03:16:54;;;;;;;9.40;6.72;;;30.50;95.10;;;;;;4138647;28;20054;-63
2022/05/18 03:18:59;;;;;;;8.85;6.90;;;30.60;94.90;;;;;;4141490;28;20103;-63
2022/05/18 03:25:40;;;;;;;7.30;6.55;;;30.80;94.90;;;;;;4142478;28;20049;-63
2022/05/18 03:27:45;;;;;;;11.55;7.18;;;30.80;94.80;;;;;;4138038;28;20064;-64
2022/05/18 03:29:50;;;;;;;7.60;6.90;;;30.90;94.90;;;;;;4142598;28;20046;-63
2022/05/18 03:31:58;;;;;;;7.90;6.70;;;30.90;94.80;;;;;;4106409;28;20054;-65
2022/05/18 03:34:05;;;;;;;8.88;6.95;;;30.90;94.80;;;;;;4108034;28;20090;-65
2022/05/18 03:36:13;;;;;;;8.90;7.00;;;31.00;94.00;;;;;;4107748;28;20090;-63
2022/05/18 03:38:21;;;;;;;8.13;6.35;;;30.80;94.50;;;;;;4123164;28;20170;-63
2022/05/18 03:40:27;;;;;;;11.60;6.70;;;30.80;94.10;;;;;;4124116;28;20057;-63
2022/05/18 03:42:31;;;;;;;8.45;6.75;;;30.70;94.30;;;;;;4122604;28;20065;-64
2022/05/18 03:44:36;;;;;;;7.68;6.90;;;30.70;94.00;;;;;;4123046;28;20048;-62
2022/05/18 03:46:40;;;;;;;7.82;7.07;;;30.80;94.20;;;;;;4121825;28;20081;-63
2022/05/18 03:48:46;;;;;;;7.90;6.70;;;31.00;94.30;;;;;;4122868;28;20700;-64
2022/05/18 03:50:51;;;;;;;8.15;6.72;;;31.20;94.20;;;;;;4121536;28;20042;-64
2022/05/18 03:53:01;;;;;;;7.35;6.65;;;31.30;93.80;;;;;;4095296;28;22068;-63
2022/05/18 03:55:06;;;;;;;9.00;6.82;;;31.40;93.60;;;;;;4106387;28;20445;-63
2022/05/18 03:57:12;;;;;;;8.88;6.90;;;31.40;93.90;;;;;;4121658;28;20097;-63
2022/05/18 03:59:21;;;;;;;8.32;6.50;;;31.10;93.70;;;;;;4122606;28;20630;-64
2022/05/18 04:01:27;;;;;;;8.68;6.57;;;31.00;93.70;;;;;;4122327;28;20137;-64
2022/05/18 04:03:32;;;;;;;7.90;7.07;;;30.90;94.00;;;;;;4134111;28;20080;-64
2022/05/18 04:05:38;;;;;;;8.48;6.75;;;31.00;94.00;;;;;;4141169;28;20497;-63
2022/05/18 04:07:43;;;;;;;9.43;6.10;;;31.20;94.40;;;;;;4106697;28;20046;-64
2022/05/18 04:09:48;;;;;;;8.50;6.07;;;31.40;94.40;;;;;;4124238;28;20104;-64
2022/05/18 04:11:52;;;;;;;7.07;6.00;;;31.60;93.90;;;;;;4140974;28;20128;-63
2022/05/18 04:13:58;;;;;;;6.65;5.72;;;31.70;93.60;;;;;;4141000;28;20129;-64
2022/05/18 04:16:03;;;;;;;119.57;15.55;;;31.90;93.50;;;;;;4139871;28;20046;-63
2022/05/18 04:18:09;;;;;;;7.45;6.32;;;31.90;93.40;;;;;;4141876;28;20049;-64
2022/05/18 04:20:15;;;;;;;7.70;6.43;;;31.80;93.10;;;;;;4140758;28;20455;-64
2022/05/18 04:22:29;;;;;;;8.68;6.15;;;31.90;93.10;;;;;;4141019;28;20080;-64
2022/05/18 04:24:34;;;;;;;6.63;5.63;;;31.90;93.10;;;;;;4136886;28;20687;-65
2022/05/18 04:26:43;;;;;;;7.03;5.95;;;31.30;92.40;;;;;;4140204;28;20098;-65
2022/05/18 04:28:48;;;;;;;7.43;6.03;;;31.10;93.20;;;;;;4140467;28;20061;-65
2022/05/18 04:30:56;;;;;;;7.07;6.32;;;31.30;93.30;;;;;;4141687;28;20053;-65
2022/05/18 04:33:01;;;;;;;12.43;6.47;;;31.60;93.40;;;;;;4140968;28;20558;-65
2022/05/18 04:35:08;;;;;;;7.70;6.90;;;31.70;93.20;;;;;;4133050;28;20136;-63
2022/05/18 04:37:13;;;;;;;8.27;6.88;;;31.80;93.10;;;;;;4136595;28;20050;-64
2022/05/18 04:39:22;;;;;;;8.02;6.53;;;31.90;93.30;;;;;;4154140;28;20049;-64
2022/05/18 04:41:27;;;;;;;8.23;6.78;;;31.90;93.40;;;;;;4141077;28;20037;-64
2022/05/18 04:43:42;;;;;;;7.22;6.25;;;32.00;93.10;;;;;;4141882;28;20052;-64
2022/05/18 04:45:50;;;;;;;7.43;5.97;;;32.00;93.00;;;;;;4139823;28;20045;-64
2022/05/18 04:48:05;;;;;;;7.00;6.00;;;32.00;93.30;;;;;;4140725;28;20516;-64
2022/05/18 04:50:10;;;;;;;8.82;6.40;;;32.00;93.30;;;;;;4139888;28;20869;-64
2022/05/18 04:52:15;;;;;;;6.30;5.70;;;32.20;93.40;;;;;;4141633;28;20085;-64
2022/05/18 04:54:23;;;;;;;8.25;6.65;;;32.20;92.80;;;;;;4140246;28;20112;-64
2022/05/18 04:56:28;;;;;;;7.50;6.22;;;32.20;93.30;;;;;;4141241;28;20053;-64
2022/05/18 04:58:34;;;;;;;7.30;6.10;;;32.20;93.20;;;;;;4136237;28;20100;-64
2022/05/18 05:00:41;;;;;;;8.02;6.63;;;32.30;93.00;;;;;;4139502;28;20125;-64
2022/05/18 05:02:45;;;;;;;8.88;6.90;;;32.20;92.90;;;;;;4124328;28;20086;-64
2022/05/18 05:04:51;;;;;;;7.53;6.40;;;32.20;92.90;;;;;;4138978;28;21631;-64
2022/05/18 05:06:57;;;;;;;7.97;6.32;;;32.10;92.80;;;;;;4141197;28;20041;-64
2022/05/18 05:09:03;;;;;;;7.38;6.10;;;32.20;92.70;;;;;;4139384;28;20046;-63
2022/05/18 05:11:11;;;;;;;9.77;6.70;;;32.30;92.10;;;;;;4092061;28;20510;-64
2022/05/18 05:13:17;;;;;;;9.45;6.47;;;32.20;92.60;;;;;;4139464;28;20058;-64
2022/05/18 05:15:21;;;;;;;6.88;6.15;;;32.40;92.60;;;;;;4138927;28;20072;-64
2022/05/18 05:17:28;;;;;;;7.97;6.70;;;32.50;92.30;;;;;;4140679;28;20128;-64
2022/05/18 05:19:36;;;;;;;7.20;6.30;;;32.60;92.40;;;;;;4139571;28;20130;-64
2022/05/18 05:21:43;;;;;;;7.18;5.72;;;32.80;92.40;;;;;;4140320;28;20057;-64
2022/05/18 05:23:48;;;;;;;8.68;6.88;;;32.90;92.20;;;;;;4139591;28;20077;-64
2022/05/18 05:25:54;;;;;;;8.45;7.03;;;32.80;92.20;;;;;;4140332;28;20046;-64
2022/05/18 05:28:00;;;;;;;9.27;7.40;;;32.70;92.20;;;;;;4139790;28;20054;-64
2022/05/18 05:30:13;;;;;;;9.68;6.90;;;32.50;92.70;;;;;;4122707;28;20234;-64
2022/05/18 05:32:22;;;;;;;8.13;7.30;;;32.30;92.80;;;;;;4108671;28;20043;-64
2022/05/18 05:34:26;;;;;;;7.63;6.60;;;32.20;93.00;;;;;;4135920;28;20057;-65
2022/05/18 05:36:32;;;;;;;7.65;6.90;;;32.50;92.70;;;;;;4140317;28;20123;-64
2022/05/18 05:38:40;;;;;;;7.40;6.57;;;32.50;92.30;;;;;;4134936;28;20046;-64
2022/05/18 05:40:46;;;;;;;8.68;7.00;;;32.50;92.20;;;;;;4140963;28;20125;-63
2022/05/18 05:42:51;;;;;;;7.43;6.60;;;32.60;92.30;;;;;;4140556;28;20042;-63
2022/05/18 05:44:57;;;;;;;10.88;7.22;;;32.80;91.90;;;;;;4140300;28;20092;-65
2022/05/18 05:47:03;;;;;;;9.27;7.15;;;33.00;92.00;;;;;;4140400;28;20093;-65
2022/05/18 05:49:10;;;;;;;9.52;6.68;;;33.10;92.40;;;;;;4138686;28;20060;-65
2022/05/18 05:51:18;;;;;;;8.30;6.20;;;33.20;92.20;;;;;;4131810;28;20602;-65
2022/05/18 05:53:23;;;;;;;7.00;6.30;;;33.20;91.40;;;;;;4133733;28;20138;-64
2022/05/18 05:55:28;;;;;;;9.88;6.88;;;33.30;91.50;;;;;;4140541;28;20698;-65
2022/05/18 05:57:32;;;;;;;8.02;6.68;;;33.40;91.40;;;;;;4140041;28;20046;-65
2022/05/18 05:59:37;;;;;;;8.63;6.63;;;33.50;91.30;;;;;;4139631;28;20034;-65
2022/05/18 06:01:42;;;;;;;7.55;6.75;;;33.70;91.10;;;;;;4138557;28;20042;-65
2022/05/18 06:03:53;;;;;;;11.30;6.68;;;33.70;90.70;;;;;;4138261;28;20050;-65
2022/05/18 06:05:58;;;;;;;7.30;6.60;;;33.70;90.90;;;;;;4138265;28;20046;-64
2022/05/18 06:08:03;;;;;;;9.38;7.10;;;33.90;90.70;;;;;;4136658;28;20774;-64
2022/05/18 06:10:13;;;;;;;10.13;6.57;;;34.00;90.80;;;;;;4138964;28;20056;-65
2022/05/18 06:12:17;;;;;;;6.75;5.95;;;34.10;90.60;;;;;;4130217;28;20050;-64
2022/05/18 06:14:22;;;;;;;8.15;6.60;;;34.00;90.50;;;;;;4138515;28;20056;-64
2022/05/18 06:16:27;;;;;;;8.07;6.95;;;34.10;90.50;;;;;;4134829;28;20072;-65
2022/05/18 06:18:33;;;;;;;7.28;6.47;;;34.00;90.90;;;;;;4138079;28;20108;-64
2022/05/18 06:20:40;;;;;;;8.30;6.60;;;33.70;91.10;;;;;;4123262;28;20042;-64
2022/05/18 06:22:45;;;;;;;7.07;6.38;;;33.40;91.00;;;;;;4139673;28;20097;-63
2022/05/18 06:24:51;;;;;;;6.70;6.10;;;33.60;91.00;;;;;;4139392;28;20136;-64
2022/05/18 06:26:58;;;;;;;7.70;6.85;;;33.80;90.60;;;;;;4143721;28;20042;-67
2022/05/18 06:29:04;;;;;;;6.78;6.07;;;34.00;90.30;;;;;;4139791;28;20144;-66
2022/05/18 06:31:08;;;;;;;7.80;7.00;;;34.10;90.10;;;;;;4136766;28;20401;-65
2022/05/18 06:33:31;;;;;;;;;;;34.10;89.70;;;;;;4127923;28;20061;-65
2022/05/18 06:35:35;;;;;;;9.18;5.88;;;34.00;89.30;;;;;;4131445;28;20017;-65
2022/05/18 06:37:44;;;;;;;9.32;6.57;;;34.20;90.00;;;;;;4135390;28;20064;-65
2022/05/18 06:39:50;;;;;;;6.75;6.03;;;34.30;90.00;;;;;;4134442;28;20400;-65
2022/05/18 06:41:57;;;;;;;6.80;6.00;;;34.30;89.50;;;;;;4107838;28;20047;-65
2022/05/18 06:44:06;;;;;;;6.90;5.60;;;34.20;89.90;;;;;;4135643;28;20425;-65
2022/05/18 06:46:19;;;;;;;7.05;6.32;;;34.40;89.20;;;;;;4137056;28;20056;-65
2022/05/18 06:48:24;;;;;;;6.97;5.85;;;34.20;88.80;;;;;;4122478;28;20569;-65
2022/05/18 06:50:48;;;;;;;6.38;5.78;;;34.20;89.20;;;;;;4128234;28;20049;-65
2022/05/18 06:52:54;;;;;;;7.95;5.60;;;34.30;89.40;;;;;;4142681;28;20080;-65
2022/05/18 06:55:00;;;;;;;5.95;5.35;;;34.30;88.50;;;;;;4140636;28;20053;-64
2022/05/18 06:57:05;;;;;;;5.07;4.57;;;34.40;88.90;;;;;;4140925;28;20042;-65
2022/05/18 06:59:11;;;;;;;6.15;4.75;;;34.30;86.70;;;;;;4137873;28;20060;-65
2022/05/18 07:01:16;;;;;;;5.20;4.30;;;34.40;87.40;;;;;;4137386;28;20044;-64
2022/05/18 07:03:21;;;;;;;5.15;4.38;;;34.50;86.10;;;;;;4141977;28;20054;-66
2022/05/18 07:05:25;;;;;;;7.47;4.65;;;34.50;87.10;;;;;;4148010;28;20806;-65
2022/05/18 07:07:30;;;;;;;4.95;4.38;;;34.60;88.00;;;;;;4140762;28;20081;-65
2022/05/18 07:09:53;;;;;;;5.05;4.55;;;34.80;88.00;;;;;;4137823;28;20060;-66
2022/05/18 07:11:57;;;;;;;5.65;4.70;;;34.70;87.20;;;;;;4128158;28;20057;-65
2022/05/18 07:14:19;;;;;;;5.68;4.63;;;34.70;87.10;;;;;;4135886;28;20114;-65
2022/05/18 07:16:42;;;;;;;5.63;4.80;;;34.70;86.80;;;;;;4156287;28;20064;-65
2022/05/18 07:18:48;;;;;;;5.13;4.25;;;34.70;86.60;;;;;;4138981;28;20124;-65
2022/05/18 07:20:53;;;;;;;5.95;4.53;;;34.70;86.80;;;;;;4137180;28;20951;-65
2022/05/18 07:22:59;;;;;;;4.95;4.35;;;34.70;86.50;;;;;;4140011;28;20045;-65
2022/05/18 07:25:06;;;;;;;4.75;4.30;;;34.70;86.90;;;;;;4139655;28;20042;-64
2022/05/18 07:27:13;;;;;;;5.18;4.40;;;34.80;86.90;;;;;;4137909;28;20107;-65
2022/05/18 07:29:19;;;;;;;6.20;4.60;;;34.80;86.90;;;;;;4139811;28;20045;-65
2022/05/18 07:31:23;;;;;;;5.43;4.40;;;34.10;87.80;;;;;;4137322;28;20618;-65
2022/05/18 07:33:48;;;;;;;7.13;4.97;;;34.00;89.00;;;;;;4135222;28;20423;-65
2022/05/18 07:35:54;;;;;;;5.22;4.38;;;34.20;88.60;;;;;;4139581;28;20497;-65
2022/05/18 07:37:58;;;;;;;7.43;4.95;;;34.40;89.00;;;;;;4131429;28;20276;-65
2022/05/18 07:40:23;;;;;;;5.88;4.70;;;34.50;88.60;;;;;;4136814;28;20596;-65
2022/05/18 07:42:28;;;;;;;6.05;4.35;;;34.40;88.50;;;;;;4138726;28;20122;-65
2022/05/18 07:44:35;;;;;;;6.60;4.47;;;34.40;87.50;;;;;;4139209;28;20042;-64
2022/05/18 07:46:43;;;;;;;4.80;4.32;;;34.40;88.20;;;;;;4140235;28;20543;-64
2022/05/18 07:48:54;;;;;;;5.70;4.72;;;34.50;87.50;;;;;;4140603;28;20108;-64
2022/05/18 07:50:58;;;;;;;4.80;4.28;;;34.40;86.50;;;;;;4139147;28;20073;-64
2022/05/18 07:53:03;;;;;;;6.13;4.57;;;34.10;88.10;;;;;;4140720;28;20531;-64
2022/05/18 07:55:08;;;;;;;6.55;4.18;;;34.10;87.80;;;;;;4138402;28;20085;-65
2022/05/18 07:57:12;;;;;;;7.88;4.43;;;34.00;88.70;;;;;;4140653;28;20046;-65
2022/05/18 07:59:19;;;;;;;6.80;4.25;;;34.00;89.10;;;;;;4140505;28;20050;-65
2022/05/18 08:01:24;;;;;;;6.13;4.95;;;34.00;87.20;;;;;;4140327;28;20042;-65
2022/05/18 08:03:28;;;;;;;7.38;5.20;;;33.90;88.10;;;;;;4141451;28;20128;-65
2022/05/18 08:05:33;;;;;;;9.68;5.05;;;33.50;89.00;;;;;;4140684;28;20531;-65
2022/05/18 08:07:45;;;;;;;6.50;4.60;;;33.60;89.30;;;;;;4140864;28;20053;-65
2022/05/18 08:16:48;;;;;;;6.57;4.60;;;33.90;88.70;;;;;;4137567;28;20053;-64
2022/05/18 08:18:53;;;;;;;6.82;4.43;;;33.80;88.80;;;;;;4139837;28;20941;-65
2022/05/18 08:20:58;;;;;;;7.32;4.50;;;33.90;88.50;;;;;;4139987;28;20042;-65
2022/05/18 08:23:04;;;;;;;5.72;5.13;;;33.70;88.10;;;;;;4138566;28;20519;-64
2022/05/18 08:25:10;;;;;;;8.43;5.55;;;33.60;90.00;;;;;;4137640;28;20050;-64
2022/05/18 08:27:27;;;;;;;6.18;5.45;;;33.60;89.50;;;;;;4137498;28;20080;-64
2022/05/18 08:29:32;;;;;;;6.30;5.22;;;33.70;89.20;;;;;;4138924;28;20136;-65
2022/05/18 08:31:36;;;;;;;10.02;5.70;;;33.70;89.20;;;;;;4138119;28;20077;-65
2022/05/18 08:33:41;;;;;;;5.32;4.80;;;33.50;88.90;;;;;;4138255;28;20152;-65
2022/05/18 08:35:47;;;;;;;5.95;5.32;;;33.10;89.30;;;;;;4139199;28;20046;-65
2022/05/18 08:37:53;;;;;;;7.85;6.18;;;33.10;90.40;;;;;;4125818;28;20061;-65
2022/05/18 08:40:03;;;;;;;8.05;6.50;;;32.90;90.40;;;;;;4139071;28;20050;-65
2022/05/18 08:42:10;;;;;;;8.48;6.82;;;32.80;89.90;;;;;;4137692;28;20100;-65
2022/05/18 08:44:32;;;;;;;8.55;7.57;;;32.90;89.90;;;;;;4136746;28;20045;-65
2022/05/18 08:46:43;;;;;;;7.95;6.10;;;32.80;90.20;;;;;;4142228;28;20405;-64
2022/05/18 08:49:13;;;;;;;7.25;6.53;;;32.50;90.80;;;;;;4138008;28;20145;-64
2022/05/18 08:51:40;;;;;;;7.78;6.28;;;32.60;90.80;;;;;;4146861;28;20137;-64
2022/05/18 08:54:04;;;;;;;7.65;6.30;;;32.40;90.60;;;;;;4144937;28;20065;-65
2022/05/18 08:56:23;;;;;;;9.07;6.97;;;32.60;90.60;;;;;;4158762;28;20089;-65
2022/05/18 08:58:41;;;;;;;9.32;6.95;;;32.70;90.40;;;;;;4126154;28;20042;-64
2022/05/18 09:00:50;;;;;;;10.13;7.40;;;32.80;90.40;;;;;;4144587;28;20053;-64
2022/05/18 09:03:12;;;;;;;10.25;7.10;;;32.80;90.90;;;;;;4111568;28;20053;-64
2022/05/18 09:05:32;;;;;;;8.00;6.70;;;32.90;90.70;;;;;;4164605;28;20072;-64
2022/05/18 09:07:42;;;;;;;9.90;7.13;;;32.90;90.70;;;;;;4135523;28;20049;-64
2022/05/18 09:12:16;;;;;;;7.93;6.45;;;32.80;90.70;;;;;;4129692;28;20560;-64
2022/05/18 09:14:25;;;;;;;10.57;6.93;;;32.80;90.70;;;;;;4133883;28;20554;-65
2022/05/18 09:16:42;;;;;;;8.57;6.15;;;32.70;90.70;;;;;;4139302;28;20096;-65
2022/05/18 09:19:13;;;;;;;9.40;6.50;;;32.70;90.80;;;;;;4140698;28;20049;-64
2022/05/18 09:21:23;;;;;;;7.43;6.53;;;32.70;90.80;;;;;;4139178;28;20053;-64
2022/05/18 09:23:44;;;;;;;10.90;8.35;;;32.60;90.70;;;;;;4152652;28;20049;-64
2022/05/18 09:26:00;;;;;;;12.95;7.70;;;32.50;90.90;;;;;;4142604;28;20053;-65
2022/05/18 09:28:16;;;;;;;10.77;8.23;;;32.60;91.00;;;;;;4138703;28;20137;-64
2022/05/18 09:30:23;;;;;;;10.73;8.63;;;32.40;91.40;;;;;;4115082;28;20050;-65
2022/05/18 09:32:38;;;;;;;11.73;7.80;;;32.40;91.20;;;;;;4137885;28;20963;-64
2022/05/18 09:34:58;;;;;;;9.80;8.50;;;32.40;91.20;;;;;;4132193;28;20100;-64
2022/05/18 09:37:13;;;;;;;9.75;8.32;;;32.40;91.30;;;;;;4140765;28;20564;-65
2022/05/18 09:39:21;;;;;;;10.68;8.57;;;32.30;90.90;;;;;;4141093;28;20041;-65
2022/05/18 09:41:30;;;;;;;13.60;9.15;;;32.30;91.40;;;;;;4149980;28;20424;-64
2022/05/18 09:43:51;;;;;;;12.07;8.65;;;32.30;91.40;;;;;;4157553;28;20759;-64
2022/05/18 09:45:56;;;;;;;10.32;8.52;;;32.30;91.40;;;;;;4141391;28;20046;-64
2022/05/18 09:48:28;;;;;;;8.98;7.82;;;32.30;91.50;;;;;;4123417;28;20049;-65
2022/05/18 09:50:36;;;;;;;8.88;7.75;;;32.30;91.70;;;;;;4138300;28;20571;-65
2022/05/18 09:52:41;;;;;;;8.25;6.57;;;32.30;91.80;;;;;;4120564;28;20042;-65
2022/05/18 09:54:46;;;;;;;9.38;6.70;;;32.30;92.00;;;;;;4135420;28;20046;-65
2022/05/18 09:57:06;;;;;;;7.50;6.40;;;32.30;92.00;;;;;;4137906;28;20049;-65
2022/05/18 09:59:18;;;;;;;8.70;7.13;;;32.30;91.90;;;;;;4135731;28;20077;-64
2022/05/18 10:08:44;;;;;;;7.72;6.60;;;32.20;92.00;;;;;;4135028;28;20038;-65
2022/05/18 10:10:53;;;;;;;8.23;6.40;;;32.10;92.00;;;;;;4121123;28;20894;-65
2022/05/18 10:13:02;;;;;;;9.85;6.95;;;32.20;92.20;;;;;;4121503;28;20058;-65
2022/05/18 10:15:39;;;;;;;27.63;7.05;;;32.10;92.20;;;;;;4136978;28;20042;-65
2022/05/18 10:17:50;;;;;;;12.32;6.30;;;32.10;92.60;;;;;;4152345;28;20042;-65
2022/05/18 10:20:00;;;;;;;8.07;6.18;;;32.00;92.40;;;;;;4137350;28;20049;-66
2022/05/18 10:22:06;;;;;;;9.23;6.88;;;32.00;92.40;;;;;;4136163;28;20042;-65
2022/05/18 10:24:25;;;;;;;11.90;6.10;;;32.00;92.50;;;;;;4136410;28;20050;-65
2022/05/18 10:26:34;;;;;;;7.90;6.30;;;31.90;92.80;;;;;;4141733;28;20034;-65
2022/05/18 10:28:41;;;;;;;9.65;6.10;;;31.90;92.70;;;;;;4138468;28;20532;-65
2022/05/18 10:31:02;;;;;;;10.65;6.65;;;31.90;92.80;;;;;;4136455;28;20061;-65
2022/05/18 10:33:18;;;;;;;12.68;7.35;;;31.90;92.80;;;;;;4139567;28;20050;-64
2022/05/18 10:35:44;;;;;;;9.00;6.43;;;31.80;92.70;;;;;;4139744;28;20050;-64
2022/05/18 10:37:49;;;;;;;15.70;7.75;;;31.80;92.80;;;;;;4140460;28;20100;-64
2022/05/18 10:40:12;;;;;;;10.30;7.70;;;31.70;92.90;;;;;;4135348;28;20054;-65
2022/05/18 10:42:42;;;;;;;14.45;8.00;;;31.70;93.10;;;;;;4123999;28;20093;-65
2022/05/18 10:44:48;;;;;;;10.52;7.13;;;31.70;93.30;;;;;;4136279;28;20050;-65
2022/05/18 10:46:54;;;;;;;12.32;8.05;;;31.70;93.30;;;;;;4121877;28;20125;-64
2022/05/18 10:49:31;;;;;;;11.48;7.95;;;31.60;93.30;;;;;;4088970;28;20160;-64
2022/05/18 10:51:41;;;;;;;12.80;7.50;;;31.60;93.60;;;;;;4089385;28;20972;-65
2022/05/18 10:53:47;;;;;;;8.63;7.28;;;31.60;93.70;;;;;;4106540;28;20977;-64
2022/05/18 10:55:58;;;;;;;10.25;7.25;;;31.60;93.70;;;;;;4094502;28;20065;-65
2022/05/18 10:58:13;;;;;;;11.47;8.37;;;31.60;93.90;;;;;;4105959;28;20737;-65
2022/05/18 11:00:21;;;;;;;13.98;8.23;;;31.60;93.90;;;;;;4098210;28;20810;-64
2022/05/18 11:02:51;;;;;;;12.93;9.00;;;31.50;94.00;;;;;;4090310;28;20040;-65
2022/05/18 11:05:17;;;;;;;13.88;8.93;;;31.40;93.90;;;;;;4105608;28;20497;-65
2022/05/18 11:07:41;;;;;;;12.90;8.25;;;31.40;94.00;;;;;;4092723;28;20506;-65
2022/05/18 11:09:52;;;;;;;12.10;8.30;;;31.40;93.90;;;;;;4091764;28;20079;-65
2022/05/18 11:12:43;;;;;;;11.48;7.85;;;31.30;94.20;;;;;;4105153;28;20046;-65
2022/05/18 11:14:58;;;;;;;13.65;8.32;;;31.30;94.40;;;;;;4089862;28;20079;-65
2022/05/18 11:17:11;;;;;;;15.30;8.77;;;31.30;94.30;;;;;;4091290;28;20145;-64
2022/05/18 11:19:35;;;;;;;10.48;8.27;;;31.30;94.50;;;;;;4093619;28;20050;-65
2022/05/18 11:21:59;;;;;;;13.50;7.97;;;31.20;94.60;;;;;;4121776;28;20133;-65
2022/05/18 11:24:26;;;;;;;10.82;7.93;;;31.20;94.90;;;;;;4118738;28;20050;-64
2022/05/18 11:26:50;;;;;;;10.30;7.72;;;31.20;95.10;;;;;;4107504;28;20090;-64
2022/05/18 11:29:21;;;;;;;12.13;7.78;;;31.10;95.10;;;;;;4117243;28;20061;-64
2022/05/18 11:31:49;;;;;;;9.68;7.60;;;31.10;95.20;;;;;;4121355;28;20565;-64
2022/05/18 11:34:32;;;;;;;11.07;8.20;;;31.10;95.50;;;;;;4078677;29;20066;-64